Archiv-/Tagesdaten

--Timestamp---	Temp	Chill	HIndex	Humid	Dewpt	 Wind 	HiWind	WindDir	Rain 	Barom	Solar	 ET  	 UV 
--------------	----	-----	------	-----	-----	------	------	-------	-----	-----	-----	-----	----
20260502 00:00	9.7	9.7	9.7	65	3.4	0	3	90	0.0	1023.6	0	0.025	0.0
20260502 00:05	9.6	9.6	9.6	65	3.3	0	2	90	0.0	1023.4	0	0.000	0.0
20260502 00:10	9.6	9.6	9.6	65	3.3	0	2	90	0.0	1023.5	0	0.000	0.0
20260502 00:15	9.5	9.5	9.5	66	3.5	0	0	-100000	0.0	1023.4	0	0.000	0.0
20260502 00:20	9.4	9.4	9.4	66	3.4	2	3	112	0.0	1023.4	0	0.000	0.0
20260502 00:25	9.3	9.3	9.3	66	3.3	0	3	112	0.0	1023.3	0	0.000	0.0
20260502 00:30	9.2	9.2	9.2	67	3.4	0	2	112	0.0	1023.4	0	0.000	0.0
20260502 00:35	9.1	9.1	9.1	67	3.3	0	2	112	0.0	1023.3	0	0.000	0.0
20260502 00:40	8.9	8.9	8.9	67	3.1	0	0	-100000	0.0	1023.2	0	0.000	0.0
20260502 00:45	8.8	8.8	8.8	68	3.3	0	0	-100000	0.0	1023.2	0	0.000	0.0
20260502 00:50	8.6	8.6	8.6	68	3.0	0	0	-100000	0.0	1023.2	0	0.000	0.0
20260502 00:55	8.5	8.5	8.5	68	2.9	0	0	-100000	0.0	1023.3	0	0.000	0.0
20260502 01:00	8.3	8.3	8.3	69	3.0	0	0	-100000	0.0	1023.3	0	0.025	0.0
20260502 01:05	8.2	8.2	8.2	69	2.9	0	0	-100000	0.0	1023.2	0	0.000	0.0
20260502 01:10	8.2	8.2	8.2	69	2.8	0	0	-100000	0.0	1023.3	0	0.000	0.0
20260502 01:15	8.1	8.1	8.1	70	2.9	0	0	-100000	0.0	1023.3	0	0.000	0.0
20260502 01:20	8.1	8.1	8.1	71	3.1	0	0	-100000	0.0	1023.2	0	0.000	0.0
20260502 01:25	8.1	8.1	8.1	71	3.2	0	0	-100000	0.0	1023.2	0	0.000	0.0
20260502 01:30	8.2	8.2	8.2	71	3.2	0	0	-100000	0.0	1023.1	0	0.000	0.0
20260502 01:35	8.2	8.2	8.2	71	3.2	0	0	-100000	0.0	1023.2	0	0.000	0.0
20260502 01:40	8.1	8.1	8.1	71	3.1	0	0	-100000	0.0	1023.2	0	0.000	0.0
20260502 01:45	7.9	7.9	7.9	71	3.0	0	2	112	0.0	1023.1	0	0.000	0.0
20260502 01:50	7.9	7.9	7.9	71	3.0	0	0	-100000	0.0	1023.2	0	0.000	0.0
20260502 01:55	7.9	7.9	7.9	71	3.0	0	2	112	0.0	1023.0	0	0.000	0.0
20260502 02:00	7.8	7.8	7.8	72	3.1	0	0	-100000	0.0	1022.9	0	0.025	0.0
20260502 02:05	7.8	7.8	7.8	71	2.9	0	0	-100000	0.0	1022.8	0	0.000	0.0
20260502 02:10	7.7	7.7	7.7	71	2.8	0	2	112	0.0	1022.8	0	0.000	0.0
20260502 02:15	7.6	7.6	7.6	72	2.9	0	0	-100000	0.0	1022.8	0	0.000	0.0
20260502 02:20	7.6	7.6	7.6	73	3.0	0	0	-100000	0.0	1022.7	0	0.000	0.0
20260502 02:25	7.4	7.4	7.4	73	2.9	0	0	-100000	0.0	1022.7	0	0.000	0.0
20260502 02:30	7.4	7.4	7.4	73	2.9	0	0	-100000	0.0	1022.8	0	0.000	0.0
20260502 02:35	7.3	7.3	7.3	74	3.0	0	2	112	0.0	1022.7	0	0.000	0.0
20260502 02:40	7.3	7.3	7.3	74	3.0	0	3	112	0.0	1022.7	0	0.000	0.0
20260502 02:45	7.4	7.4	7.4	74	3.1	0	2	90	0.0	1022.6	0	0.000	0.0
20260502 02:50	7.6	7.6	7.6	74	3.3	0	0	-100000	0.0	1022.4	0	0.000	0.0
20260502 02:55	7.6	7.6	7.6	74	3.3	0	0	-100000	0.0	1022.4	0	0.000	0.0
20260502 03:00	7.6	7.6	7.6	73	3.0	0	0	-100000	0.0	1022.4	0	0.025	0.0
20260502 03:05	7.4	7.4	7.4	74	3.1	0	0	-100000	0.0	1022.4	0	0.000	0.0
20260502 03:10	7.4	7.4	7.4	74	3.1	0	0	-100000	0.0	1022.4	0	0.000	0.0
20260502 03:15	7.4	7.4	7.4	74	3.1	0	3	90	0.0	1022.4	0	0.000	0.0
20260502 03:20	7.3	7.3	7.3	74	3.0	0	0	-100000	0.0	1022.3	0	0.000	0.0
20260502 03:25	7.3	7.3	7.3	74	3.0	0	0	-100000	0.0	1022.3	0	0.000	0.0
20260502 03:30	7.2	7.2	7.2	74	2.8	0	0	-100000	0.0	1022.3	0	0.000	0.0
20260502 03:35	7.0	7.0	7.0	74	2.7	0	0	-100000	0.0	1022.3	0	0.000	0.0
20260502 03:40	6.8	6.8	6.8	74	2.5	0	0	-100000	0.0	1022.3	0	0.000	0.0
20260502 03:45	6.7	6.7	6.7	75	2.6	0	0	-100000	0.0	1022.3	0	0.000	0.0
20260502 03:50	6.6	6.6	6.6	75	2.4	0	2	90	0.0	1022.4	0	0.000	0.0
20260502 03:55	6.6	6.6	6.6	76	2.6	2	5	90	0.0	1022.3	0	0.000	0.0
20260502 04:00	6.5	6.5	6.5	76	2.6	0	0	-100000	0.0	1022.2	0	0.025	0.0
20260502 04:05	6.4	6.4	6.4	76	2.5	0	0	-100000	0.0	1022.2	0	0.000	0.0
20260502 04:10	6.3	6.3	6.3	76	2.4	0	0	-100000	0.0	1022.3	0	0.000	0.0
20260502 04:15	6.2	6.2	6.2	77	2.5	0	0	-100000	0.0	1022.2	0	0.000	0.0
20260502 04:20	6.2	6.2	6.2	77	2.5	0	3	112	0.0	1022.2	0	0.000	0.0
20260502 04:25	6.2	6.2	6.2	77	2.4	0	2	112	0.0	1022.2	0	0.000	0.0
20260502 04:30	6.1	6.1	6.1	77	2.4	0	0	-100000	0.0	1022.2	0	0.000	0.0
20260502 04:35	6.0	6.0	6.0	77	2.3	0	0	-100000	0.0	1022.2	0	0.000	0.0
20260502 04:40	5.8	5.8	5.8	77	2.1	0	0	-100000	0.0	1022.2	0	0.000	0.0
20260502 04:45	5.7	5.7	5.7	78	2.2	0	0	-100000	0.0	1022.3	0	0.000	0.0
20260502 04:50	5.6	5.6	5.6	78	2.1	0	0	-100000	0.0	1022.2	0	0.000	0.0
20260502 04:55	5.6	5.6	5.6	78	2.0	0	0	-100000	0.0	1022.2	0	0.000	0.0
20260502 05:00	5.5	5.5	5.5	78	2.0	0	0	-100000	0.0	1022.2	0	0.025	0.0
20260502 05:05	5.4	5.4	5.4	78	1.9	0	0	-100000	0.0	1022.0	0	0.000	0.0
20260502 05:10	5.4	5.4	5.4	79	2.1	0	2	112	0.0	1022.0	0	0.000	0.0
20260502 05:15	5.4	5.4	5.4	79	2.0	0	2	112	0.0	1022.0	0	0.000	0.0
20260502 05:20	5.4	5.4	5.4	79	2.0	0	2	112	0.0	1022.0	0	0.000	0.0
20260502 05:25	5.3	5.3	5.3	79	2.0	0	0	-100000	0.0	1021.9	0	0.000	0.0
20260502 05:30	5.3	5.3	5.3	79	1.9	0	2	112	0.0	1022.0	0	0.000	0.0
20260502 05:35	5.2	5.2	5.2	79	1.8	0	0	-100000	0.0	1022.2	0	0.000	0.0
20260502 05:40	5.1	5.1	5.1	79	1.8	0	2	112	0.0	1022.2	0	0.000	0.0
20260502 05:45	5.1	5.1	5.1	79	1.7	0	0	-100000	0.0	1022.1	0	0.000	0.0
20260502 05:50	4.9	4.9	4.9	80	1.8	0	0	-100000	0.0	1022.1	0	0.000	0.0
20260502 05:55	4.9	4.9	4.9	80	1.7	0	0	-100000	0.0	1022.2	0	0.000	0.0
20260502 06:00	4.9	4.9	4.9	80	1.7	0	0	-100000	0.0	1022.1	1	0.000	0.0
20260502 06:05	4.8	4.8	4.8	80	1.7	0	0	-100000	0.0	1022.2	5	0.000	0.0
20260502 06:10	4.8	4.8	4.8	80	1.6	0	0	-100000	0.0	1022.1	7	0.000	0.0
20260502 06:15	4.8	4.8	4.8	80	1.6	0	0	-100000	0.0	1022.1	8	0.000	0.0
20260502 06:20	4.8	4.8	4.8	80	1.6	0	2	112	0.0	1022.2	10	0.000	0.0
20260502 06:25	4.8	4.8	4.8	80	1.6	0	0	-100000	0.0	1022.3	11	0.000	0.0
20260502 06:30	4.8	4.8	4.8	80	1.6	0	0	-100000	0.0	1022.3	12	0.000	0.0
20260502 06:35	4.8	4.8	4.8	80	1.6	0	2	112	0.0	1022.3	14	0.000	0.0
20260502 06:40	4.8	4.8	4.8	81	1.9	0	0	-100000	0.0	1022.2	16	0.000	0.0
20260502 06:45	5.1	5.1	5.1	81	2.1	0	0	-100000	0.0	1022.2	18	0.000	0.0
20260502 06:50	5.3	5.3	5.3	81	2.3	0	2	112	0.0	1022.3	19	0.000	0.0
20260502 06:55	5.4	5.4	5.4	80	2.2	0	2	112	0.0	1022.3	21	0.000	0.0
20260502 07:00	5.4	5.4	5.4	80	2.3	0	0	-100000	0.0	1022.3	21	0.000	0.0
20260502 07:05	5.6	5.6	5.6	81	2.6	0	2	112	0.0	1022.4	23	0.000	0.0
20260502 07:10	5.8	5.8	5.8	81	2.8	0	2	112	0.0	1022.4	24	0.000	0.0
20260502 07:15	6.0	6.0	6.0	81	3.0	0	2	112	0.0	1022.4	25	0.000	0.0
20260502 07:20	6.2	6.2	6.2	80	3.0	0	2	135	0.0	1022.4	25	0.000	0.0
20260502 07:25	6.6	6.6	6.6	80	3.4	0	2	135	0.0	1022.2	26	0.000	0.0
20260502 07:30	7.1	7.1	7.1	79	3.7	0	2	90	0.0	1022.2	80	0.000	0.0
20260502 07:35	7.6	7.6	7.6	78	4.0	0	3	90	0.0	1022.2	194	0.000	0.0
20260502 07:40	7.8	7.8	7.8	78	4.2	2	5	158	0.0	1022.2	207	0.000	0.0
20260502 07:45	8.3	8.3	8.3	77	4.5	0	5	158	0.0	1022.2	220	0.000	0.0
20260502 07:50	9.0	9.0	9.0	74	4.6	2	5	158	0.0	1022.1	233	0.000	0.0
20260502 07:55	9.6	9.6	9.6	73	5.0	2	5	158	0.0	1022.0	247	0.000	0.0
20260502 08:00	10.1	10.1	10.1	70	4.9	0	5	158	0.0	1021.9	260	0.051	0.0
20260502 08:05	10.6	10.6	10.6	69	5.2	2	5	180	0.0	1022.2	272	0.000	0.0
20260502 08:10	11.1	11.1	11.1	68	5.4	2	3	180	0.0	1022.1	285	0.000	0.3
20260502 08:15	11.6	11.6	11.6	66	5.4	0	3	180	0.0	1022.0	297	0.000	0.5
20260502 08:20	12.0	12.0	12.0	66	5.8	2	5	158	0.0	1022.1	312	0.000	0.6
20260502 08:25	12.6	12.6	12.6	64	6.0	3	6	135	0.0	1022.0	326	0.000	0.6
20260502 08:30	12.8	12.8	12.8	62	5.7	5	8	135	0.0	1022.0	339	0.000	0.6
20260502 08:35	13.3	13.3	13.3	61	5.9	3	8	135	0.0	1021.9	352	0.000	0.7
20260502 08:40	13.6	13.6	13.6	61	6.2	3	8	135	0.0	1021.9	364	0.000	0.7
20260502 08:45	13.9	13.9	13.9	59	6.1	3	6	135	0.0	1021.9	376	0.000	0.8
20260502 08:50	14.2	14.2	14.2	58	6.0	3	10	158	0.0	1021.9	389	0.000	0.8
20260502 08:55	14.3	14.3	14.3	57	5.9	2	8	135	0.0	1021.7	402	0.000	0.9
20260502 09:00	14.8	14.8	14.8	56	6.1	3	10	158	0.0	1021.6	415	0.178	0.9
20260502 09:05	15.2	15.2	15.2	53	5.6	5	11	112	0.0	1021.9	428	0.000	1.0
20260502 09:10	15.3	15.3	15.3	54	6.0	2	6	135	0.0	1021.9	440	0.000	1.0
20260502 09:15	15.8	15.8	15.8	53	6.2	2	5	112	0.0	1021.9	452	0.000	1.1
20260502 09:20	16.4	16.4	16.4	52	6.6	3	6	112	0.0	1021.7	464	0.000	1.1
20260502 09:25	17.0	17.0	17.0	50	6.5	3	6	112	0.0	1021.6	476	0.000	1.2
20260502 09:30	17.2	17.2	17.2	49	6.4	3	6	112	0.0	1021.6	489	0.000	1.3
20260502 09:35	17.4	17.4	17.4	49	6.6	3	10	112	0.0	1021.6	500	0.000	1.3
20260502 09:40	17.6	17.6	17.6	48	6.4	3	6	112	0.0	1021.6	511	0.000	1.3
20260502 09:45	17.4	17.4	17.4	48	6.3	3	10	135	0.0	1021.5	524	0.000	1.4
20260502 09:50	17.7	17.7	17.7	47	6.2	5	8	90	0.0	1021.5	527	0.000	1.5
20260502 09:55	17.7	17.7	17.7	47	6.2	3	8	90	0.0	1021.4	225	0.000	0.9
20260502 10:00	17.8	17.8	17.8	47	6.3	3	8	112	0.0	1021.4	37	0.254	0.0
20260502 10:05	17.9	17.9	17.9	46	6.1	3	10	112	0.0	1021.5	37	0.000	0.0
20260502 10:10	18.1	18.1	18.1	46	6.3	3	8	90	0.0	1021.4	37	0.000	0.0
20260502 10:15	18.1	18.1	18.1	46	6.3	2	6	68	0.0	1021.4	37	0.000	0.0
20260502 10:20	18.1	18.1	18.1	45	6.0	3	10	90	0.0	1021.4	37	0.000	0.0
20260502 10:25	18.2	18.2	18.2	45	6.0	2	5	90	0.0	1021.4	37	0.000	0.0
20260502 10:30	18.2	18.2	18.2	44	5.8	2	5	90	0.0	1021.5	37	0.000	0.0
20260502 10:35	18.2	18.2	18.2	44	5.8	2	6	45	0.0	1021.5	37	0.000	0.0
20260502 10:40	18.2	18.2	18.2	43	5.4	2	3	45	0.0	1021.4	38	0.000	0.0
20260502 10:45	18.2	18.2	18.2	44	5.8	2	5	45	0.0	1021.3	39	0.000	0.0
20260502 10:50	18.4	18.4	18.4	44	5.9	5	10	135	0.0	1021.3	39	0.000	0.0
20260502 10:55	18.6	18.6	18.6	43	5.7	2	5	135	0.0	1021.3	39	0.000	0.0
20260502 11:00	18.7	18.7	18.7	43	5.9	2	5	135	0.0	1021.3	39	0.051	0.0
20260502 11:05	18.9	18.9	18.9	44	6.4	2	6	135	0.0	1021.4	39	0.000	0.0
20260502 11:10	19.1	19.1	19.1	43	6.2	2	6	112	0.0	1021.4	39	0.000	0.0
20260502 11:15	19.2	19.2	19.2	42	5.9	2	8	68	0.0	1021.3	40	0.000	0.0
20260502 11:20	19.3	19.3	19.3	43	6.4	2	5	68	0.0	1021.2	40	0.000	0.0
20260502 11:25	19.6	19.6	19.6	43	6.7	2	8	90	0.0	1021.1	40	0.000	0.0
20260502 11:30	19.8	19.8	19.8	43	6.8	3	8	45	0.0	1021.1	40	0.000	0.0
20260502 11:35	19.7	19.7	19.7	42	6.4	2	6	45	0.0	1021.0	40	0.000	0.0
20260502 11:40	19.7	19.7	19.7	42	6.4	2	6	135	0.0	1020.9	41	0.000	0.0
20260502 11:45	20.1	20.1	20.1	43	7.1	5	10	135	0.0	1020.9	42	0.000	0.0
20260502 11:50	20.6	20.6	20.6	42	7.2	3	8	90	0.0	1020.8	48	0.000	0.2
20260502 11:55	20.7	20.7	20.7	40	6.6	3	10	45	0.0	1020.8	732	0.000	1.3
20260502 12:00	20.6	20.6	20.6	40	6.5	3	6	45	0.0	1020.7	740	0.102	2.4
20260502 12:05	20.7	20.7	20.7	41	6.9	3	6	112	0.0	1020.8	745	0.000	3.2
20260502 12:10	20.9	20.9	20.9	39	6.4	0	3	112	0.0	1020.8	750	0.000	3.3
20260502 12:15	20.9	20.9	20.9	39	6.5	3	11	68	0.0	1020.7	755	0.000	3.2
20260502 12:20	21.2	21.2	21.2	39	6.7	3	6	90	0.0	1020.6	756	0.000	3.2
20260502 12:25	21.4	21.4	21.4	38	6.5	3	10	68	0.0	1020.4	764	0.000	3.2
20260502 12:30	21.6	21.6	21.6	38	6.7	3	8	0	0.0	1020.4	765	0.000	3.2
20260502 12:35	21.9	21.9	21.9	38	7.0	0	3	22	0.0	1020.3	767	0.000	3.2
20260502 12:40	22.1	22.1	22.1	38	7.1	3	8	22	0.0	1020.3	773	0.000	3.3
20260502 12:45	22.2	22.2	22.2	37	6.8	5	10	45	0.0	1020.2	773	0.000	3.3
20260502 12:50	22.1	22.1	22.1	36	6.3	3	8	45	0.0	1020.2	774	0.000	3.3
20260502 12:55	22.1	22.1	22.1	36	6.3	3	10	0	0.0	1020.2	773	0.000	3.3
20260502 13:00	22.1	22.1	22.1	35	5.9	2	6	0	0.0	1020.1	777	0.483	3.3
20260502 13:05	22.4	22.4	22.4	37	7.0	3	10	0	0.0	1020.0	779	0.000	3.3
20260502 13:10	22.5	22.5	22.5	36	6.7	5	10	45	0.0	1019.9	778	0.000	3.3
20260502 13:15	22.6	22.6	22.6	35	6.3	2	8	45	0.0	1019.8	777	0.000	3.3
20260502 13:20	22.8	22.8	22.8	35	6.6	3	6	45	0.0	1019.8	778	0.000	3.3
20260502 13:25	23.1	23.1	23.1	32	5.5	5	11	68	0.0	1019.7	776	0.000	3.3
20260502 13:30	23.4	23.4	23.4	32	5.8	2	8	90	0.0	1019.6	776	0.000	3.3
20260502 13:35	23.8	23.8	23.8	32	6.1	2	6	112	0.0	1019.5	774	0.000	3.3
20260502 13:40	23.9	23.9	25.1	32	6.2	3	8	68	0.0	1019.4	771	0.000	3.3
20260502 13:45	23.9	23.9	25.0	32	6.2	3	8	68	0.0	1019.4	770	0.000	3.2
20260502 13:50	23.5	23.5	23.5	32	5.8	5	10	22	0.0	1019.4	770	0.000	3.2
20260502 13:55	23.7	23.7	23.7	31	5.6	2	11	338	0.0	1019.3	766	0.000	3.2
20260502 14:00	24.2	24.2	25.1	32	6.4	3	8	22	0.0	1019.2	766	0.508	3.2
20260502 14:05	24.7	24.7	25.3	31	6.4	3	8	0	0.0	1019.0	764	0.000	3.2
20260502 14:10	24.9	24.9	25.3	30	6.1	6	10	248	0.0	1019.0	758	0.000	3.1
20260502 14:15	24.9	24.9	25.4	31	6.6	5	10	292	0.0	1019.0	752	0.000	3.2
20260502 14:20	24.9	24.9	25.4	31	6.6	3	6	292	0.0	1018.9	749	0.000	3.2
20260502 14:25	25.0	25.0	25.4	30	6.2	3	14	315	0.0	1018.9	744	0.000	3.1
20260502 14:30	25.2	25.2	25.4	30	6.4	3	11	180	0.0	1018.8	742	0.000	3.1
20260502 14:35	25.3	25.3	25.5	29	6.0	2	6	270	0.0	1018.7	736	0.000	3.0
20260502 14:40	25.1	25.1	25.3	28	5.3	3	10	45	0.0	1018.7	730	0.000	3.0
20260502 14:45	24.7	24.7	25.2	28	5.0	3	8	0	0.0	1018.6	725	0.000	2.9
20260502 14:50	24.2	24.2	25.0	28	4.5	3	8	45	0.0	1018.5	719	0.000	2.9
20260502 14:55	24.3	24.3	25.1	29	5.1	2	6	22	0.0	1018.4	711	0.000	2.8
20260502 15:00	24.9	24.9	25.2	27	4.6	2	8	22	0.0	1018.4	707	0.508	2.8
20260502 15:05	25.1	25.1	25.3	26	4.2	5	14	45	0.0	1018.4	700	0.000	2.7
20260502 15:10	24.8	24.8	25.2	27	4.5	3	10	0	0.0	1018.4	693	0.000	2.6
20260502 15:15	25.3	25.3	25.3	25	3.9	2	6	338	0.0	1018.3	687	0.000	2.6
20260502 15:20	25.7	25.7	25.5	24	3.6	2	6	225	0.0	1018.2	680	0.000	2.5
20260502 15:25	25.5	25.5	25.3	23	2.8	3	8	0	0.0	1018.2	673	0.000	2.5
20260502 15:30	25.8	25.8	25.5	24	3.7	0	3	0	0.0	1018.0	664	0.000	2.4
20260502 15:35	26.1	26.1	25.7	25	4.5	2	5	45	0.0	1017.9	632	0.000	2.3
20260502 15:40	26.1	26.1	25.7	26	5.0	2	5	45	0.0	1017.8	629	0.000	2.2
20260502 15:45	25.8	25.8	25.6	25	4.3	3	10	22	0.0	1017.8	626	0.000	2.2
20260502 15:50	26.2	26.2	25.8	25	4.6	2	8	292	0.0	1017.7	594	0.000	2.0
20260502 15:55	26.4	26.4	25.9	26	5.3	2	5	270	0.0	1017.7	596	0.000	2.0
20260502 16:00	26.6	26.6	26.0	24	4.4	2	5	45	0.0	1017.5	602	0.432	2.0
20260502 16:05	27.0	27.0	26.2	24	4.7	0	5	22	0.0	1017.6	586	0.000	1.9
20260502 16:10	26.5	26.5	25.9	24	4.3	3	10	22	0.0	1017.4	566	0.000	1.8
20260502 16:15	25.8	25.8	25.6	26	4.8	5	10	22	0.0	1017.5	566	0.000	1.8
20260502 16:20	26.1	26.1	25.7	26	5.0	3	8	68	0.0	1017.4	555	0.000	1.7
20260502 16:25	26.3	26.3	25.8	25	4.7	3	11	90	0.0	1017.3	541	0.000	1.6
20260502 16:30	26.4	26.4	25.9	26	5.3	2	6	90	0.0	1017.3	466	0.000	1.4
20260502 16:35	26.4	26.4	25.9	26	5.3	2	5	68	0.0	1017.1	473	0.000	1.4
20260502 16:40	26.2	26.2	25.8	26	5.2	3	11	45	0.0	1017.2	457	0.000	1.3
20260502 16:45	25.8	25.8	25.6	27	5.4	5	16	22	0.0	1017.2	496	0.000	1.3
20260502 16:50	26.2	26.2	25.9	28	6.3	2	5	22	0.0	1017.1	430	0.000	1.2
20260502 16:55	26.2	26.2	25.8	27	5.7	6	16	22	0.0	1017.1	403	0.000	1.1
20260502 17:00	25.5	25.5	25.5	27	5.1	6	11	45	0.0	1017.0	360	0.356	1.0
20260502 17:05	25.2	25.2	25.4	29	5.9	6	14	45	0.0	1017.0	305	0.000	1.0
20260502 17:10	25.1	25.1	25.4	29	5.8	6	11	45	0.0	1017.0	285	0.000	0.9
20260502 17:15	24.9	24.9	25.3	29	5.7	6	16	22	0.0	1016.9	298	0.000	0.9
20260502 17:20	24.9	24.9	25.4	31	6.6	6	14	45	0.0	1016.9	277	0.000	0.8
20260502 17:25	24.9	24.9	25.3	29	5.6	3	11	45	0.0	1016.7	277	0.000	0.8
20260502 17:30	24.8	24.8	25.2	29	5.5	6	11	45	0.0	1016.7	299	0.000	0.8
20260502 17:35	24.9	24.9	25.3	30	6.1	6	10	45	0.0	1016.7	302	0.000	0.7
20260502 17:40	24.9	24.9	25.3	30	6.1	5	11	45	0.0	1016.5	289	0.000	0.7
20260502 17:45	24.8	24.8	25.3	30	6.1	6	13	45	0.0	1016.5	317	0.000	0.7
20260502 17:50	24.9	24.9	25.3	30	6.2	6	11	45	0.0	1016.5	340	0.000	0.7
20260502 17:55	25.1	25.1	25.4	30	6.3	5	11	68	0.0	1016.4	355	0.000	0.7
20260502 18:00	25.3	25.3	25.5	30	6.4	5	10	45	0.0	1016.4	330	0.279	0.6
20260502 18:05	25.3	25.3	25.5	29	6.0	3	8	45	0.0	1016.2	313	0.000	0.6
20260502 18:10	25.2	25.2	25.4	29	5.9	5	14	45	0.0	1016.3	324	0.000	0.6
20260502 18:15	25.1	25.1	25.3	28	5.3	6	14	22	0.0	1016.1	335	0.000	0.5
20260502 18:20	25.0	25.0	25.4	30	6.2	6	13	45	0.0	1016.0	284	0.000	0.5
20260502 18:25	25.0	25.0	25.3	28	5.2	8	16	45	0.0	1016.0	290	0.000	0.4
20260502 18:30	24.8	24.8	25.2	28	5.0	10	18	22	0.0	1015.9	276	0.000	0.0
20260502 18:35	24.8	24.8	25.2	28	5.1	6	14	45	0.0	1015.8	234	0.000	0.0
20260502 18:40	24.8	24.8	25.2	28	5.0	6	14	45	0.0	1015.9	198	0.000	0.0
20260502 18:45	24.6	24.6	25.1	28	4.8	8	14	45	0.0	1015.9	173	0.000	0.0
20260502 18:50	24.4	24.4	25.1	28	4.7	8	14	45	0.0	1015.9	184	0.000	0.0
20260502 18:55	24.4	24.4	25.1	29	5.2	6	16	45	0.0	1015.8	207	0.000	0.0
20260502 19:00	24.3	24.3	25.1	30	5.6	6	14	45	0.0	1015.8	174	0.254	0.0
20260502 19:05	24.2	24.2	25.1	31	6.0	5	10	45	0.0	1015.4	136	0.000	0.0
20260502 19:10	24.1	24.1	25.0	29	4.9	6	14	45	0.0	1015.4	87	0.000	0.0
20260502 19:15	23.9	23.9	25.0	31	5.8	3	8	68	0.0	1015.4	74	0.000	0.0
20260502 19:20	23.8	23.8	23.8	31	5.6	3	8	68	0.0	1015.4	63	0.000	0.0
20260502 19:25	23.5	23.5	23.5	32	5.8	2	5	68	0.0	1015.4	56	0.000	0.0
20260502 19:30	23.2	23.2	23.2	34	6.5	3	6	45	0.0	1015.4	52	0.000	0.0
20260502 19:35	22.8	22.8	22.8	34	6.1	3	10	45	0.0	1015.5	50	0.000	0.0
20260502 19:40	22.6	22.6	22.6	34	5.9	5	8	45	0.0	1015.5	46	0.000	0.0
20260502 19:45	22.4	22.4	22.4	34	5.7	3	10	45	0.0	1015.5	41	0.000	0.0
20260502 19:50	22.2	22.2	22.2	34	5.6	3	6	45	0.0	1015.5	36	0.000	0.0
20260502 19:55	22.0	22.0	22.0	35	5.8	3	8	68	0.0	1015.5	32	0.000	0.0
20260502 20:00	21.8	21.8	21.8	35	5.6	3	6	68	0.0	1015.6	26	0.076	0.0
20260502 20:05	21.6	21.6	21.6	35	5.5	3	6	68	0.0	1015.0	22	0.000	0.0
20260502 20:10	21.4	21.4	21.4	35	5.3	2	5	68	0.0	1015.0	19	0.000	0.0
20260502 20:15	21.2	21.2	21.2	36	5.5	2	5	68	0.0	1015.1	14	0.000	0.0
20260502 20:20	20.9	20.9	20.9	37	5.6	2	3	68	0.0	1015.1	9	0.000	0.0
20260502 20:25	20.7	20.7	20.7	37	5.5	2	5	68	0.0	1015.2	2	0.000	0.0
20260502 20:30	20.4	20.4	20.4	38	5.6	2	5	68	0.0	1015.1	0	0.000	0.0
20260502 20:35	20.2	20.2	20.2	38	5.4	2	6	68	0.0	1015.2	0	0.000	0.0
20260502 20:40	20.0	20.0	20.0	38	5.2	2	5	68	0.0	1015.3	0	0.000	0.0
20260502 20:45	19.8	19.8	19.8	39	5.4	2	5	68	0.0	1015.3	0	0.000	0.0
20260502 20:50	19.6	19.6	19.6	40	5.6	0	3	68	0.0	1015.3	0	0.000	0.0
20260502 20:55	19.3	19.3	19.3	40	5.4	0	3	68	0.0	1015.3	0	0.000	0.0
20260502 21:00	19.1	19.1	19.1	40	5.2	0	3	68	0.0	1015.3	0	0.025	0.0
20260502 21:05	18.9	18.9	18.9	41	5.3	0	3	68	0.0	1015.2	0	0.000	0.0
20260502 21:10	18.7	18.7	18.7	42	5.5	0	2	68	0.0	1015.2	0	0.000	0.0
20260502 21:15	18.5	18.5	18.5	42	5.3	0	3	68	0.0	1015.3	0	0.000	0.0
20260502 21:20	18.3	18.3	18.3	43	5.5	0	2	68	0.0	1015.3	0	0.000	0.0
20260502 21:25	18.1	18.1	18.1	44	5.6	2	5	68	0.0	1015.3	0	0.000	0.0
20260502 21:30	17.9	17.9	17.9	44	5.5	0	3	68	0.0	1015.4	0	0.000	0.0
20260502 21:35	17.8	17.8	17.8	45	5.7	0	3	68	0.0	1015.4	0	0.000	0.0
20260502 21:40	17.6	17.6	17.6	46	5.8	0	2	68	0.0	1015.4	0	0.000	0.0
20260502 21:45	17.3	17.3	17.3	47	5.9	0	0	-100000	0.0	1015.6	0	0.000	0.0
20260502 21:50	17.1	17.1	17.1	48	6.0	0	2	68	0.0	1015.6	0	0.000	0.0
20260502 21:55	16.9	16.9	16.9	47	5.5	3	6	90	0.0	1015.6	0	0.000	0.0
20260502 22:00	16.9	16.9	16.9	46	5.2	5	8	112	0.0	1015.5	0	0.051	0.0
20260502 22:05	17.2	17.2	17.2	46	5.4	5	8	90	0.0	1015.4	0	0.000	0.0
20260502 22:10	17.2	17.2	17.2	46	5.5	3	5	90	0.0	1015.4	0	0.000	0.0
20260502 22:15	17.2	17.2	17.2	45	5.1	3	6	90	0.0	1015.4	0	0.000	0.0
20260502 22:20	17.1	17.1	17.1	45	5.0	3	5	90	0.0	1015.4	0	0.000	0.0
20260502 22:25	17.1	17.1	17.1	45	5.0	3	6	112	0.0	1015.4	0	0.000	0.0
20260502 22:30	17.1	17.1	17.1	45	5.0	3	6	112	0.0	1015.4	0	0.000	0.0
20260502 22:35	17.1	17.1	17.1	45	5.0	3	6	112	0.0	1015.4	0	0.000	0.0
20260502 22:40	17.1	17.1	17.1	44	4.8	3	10	112	0.0	1015.3	0	0.000	0.0
20260502 22:45	17.1	17.1	17.1	44	4.7	3	8	112	0.0	1015.3	0	0.000	0.0
20260502 22:50	17.0	17.0	17.0	44	4.7	3	6	112	0.0	1015.2	0	0.000	0.0
20260502 22:55	16.9	16.9	16.9	44	4.6	5	8	112	0.0	1015.1	0	0.000	0.0
20260502 23:00	16.9	16.9	16.9	44	4.6	3	6	112	0.0	1015.1	0	0.076	0.0
20260502 23:05	16.8	16.8	16.8	44	4.5	3	5	112	0.0	1015.0	0	0.000	0.0
20260502 23:10	16.6	16.6	16.6	44	4.3	3	8	112	0.0	1015.0	0	0.000	0.0
20260502 23:15	16.4	16.4	16.4	44	4.1	2	5	135	0.0	1015.0	0	0.000	0.0
20260502 23:20	16.2	16.2	16.2	45	4.3	2	3	112	0.0	1015.0	0	0.000	0.0
20260502 23:25	16.0	16.0	16.0	46	4.4	2	5	112	0.0	1014.9	0	0.000	0.0
20260502 23:30	15.8	15.8	15.8	46	4.2	3	5	135	0.0	1014.9	0	0.000	0.0
20260502 23:35	15.7	15.7	15.7	46	4.1	2	5	135	0.0	1015.1	0	0.000	0.0
20260502 23:40	15.6	15.6	15.6	47	4.3	2	5	135	0.0	1015.0	0	0.000	0.0
20260502 23:45	15.3	15.3	15.3	47	4.1	3	6	135	0.0	1014.9	0	0.000	0.0
20260502 23:50	15.3	15.3	15.3	46	3.8	3	6	135	0.0	1014.9	0	0.000	0.0
20260502 23:55	15.2	15.2	15.2	47	4.0	3	6	135	0.0	1014.9	0	0.000	0.0



Please note the license to use and transfer of this data:
https://creativecommons.org/licenses/by-nc-sa/3.0/deed.en

Bitte beachten sie die Lizenz zur Verwertung und Weitergabe der Daten:
https://creativecommons.org/licenses/by-nc-sa/3.0/deed.de

zurück zur Übersicht der Archivdaten (Monats und Tagesdaten)

Cookies helfen bei der Bereitstellung von Inhalten. Diese Website verwendet Cookies. Mit der Nutzung der Website erklären Sie sich damit einverstanden, dass Cookies auf Ihrem Computer gespeichert werden. Außerdem bestätigen Sie, dass Sie unsere Datenschutzerklärung gelesen und verstanden haben. Wenn Sie nicht einverstanden sind, verlassen Sie die Website.Weitere Information